METAR Data
IDs: Format: Raw Decoded Include TAF

Data at: 0321 UTC 18 Jun 2019

PAWG 180256Z 22005KT 7SM RA BKN005 BKN027 OVC035 13/12 A2982
PAWG 180156Z 00000KT 8SM -RA BKN005 BKN027 OVC035 13/12 A2982 RMK AO2 SLP097 P0003 T01280122
PAWG 180056Z 27005KT 7SM RA SCT002 BKN015 OVC035 13/12 A2982
PAWG 172356Z 25004KT 10SM -RA SCT002 BKN027 OVC040 13/12 A2981
PAWG 172256Z VRB03KT 9SM -RA SCT005 BKN035 OVC060 13/13 A2980 RMK AO2 SLP092 P0007 T01330128
PAWG 172156Z 00000KT 8SM RA FEW005 BKN035 OVC060 14/13 A2981 RMK AO2 SLP094 P0001 T01390128
PAWG 172056Z 00000KT 10SM -RA FEW005 BKN035 OVC060 14/12 A2982 RMK AO2 RAB37 SLP098 P0000 60000 T01440122 58011
PAWG 171956Z 07004KT 10SM FEW005 BKN035 OVC060 14/12 A2983 RMK AO2 RAE55 SLP103 P0000 T01440122
PAWG 171856Z 23004KT 10SM -RA FEW005 BKN035 OVC060 14/12 A2984 RMK AO2 RAB41 SLP107 P0000 T01440122
PAWG 171756Z 00000KT 10SM FEW005 BKN030 OVC050 13/12 A2985 RMK AO2 RAE31 SLP109 P0001 60018 T01330122 10133 20117 55002
PAWG 171656Z 00000KT 10SM -RA SCT005 BKN030 OVC050 13/12 A2985 RMK AO2 SLP109 P0000 T01280122
PAWG 171556Z 28004KT 10SM -RA SCT005 BKN020 OVC040 12/12 A2985 RMK AO2 SLP109 P0003 T01220117
PAWG 171455Z 30005KT 06SM -RA BR SCT005 BKN020 OVC040 12/12 A2986
PAWG 171225Z AUTO 00000KT 7SM -RA OVC007 13/13 A2988 RMK AO2 RAB00 CIG 005V012 P0001 TSNO
PAWG 171208Z AUTO VRB04KT 10SM -RA BKN005 BKN028 OVC033 13/13 A2988 RMK AO2 RAB00 CIG 003V008 P0000 TSNO
PAWG 171156Z AUTO 16007KT 10SM FEW003 BKN031 OVC038 13/13 A2987 RMK AO2 RAE56 SLP116 P0002 60022 70023 T01330128 10161 20133 58014 TSNO
PAWG 171143Z AUTO 10007KT 070V140 10SM -RA FEW005 OVC032 13/13 A2987 RMK AO2 P0002 TSNO
PAWG 171056Z AUTO VRB03KT 5SM RA BR BKN005 BKN009 OVC036 13/13 A2989 RMK AO2 SLP121 P0009 T01330128 TSNO
PAWG 171049Z AUTO 00000KT 6SM -RA BR BKN007 OVC038 13/13 A2989 RMK AO2 CIG 003V010 P0007 TSNO
PAWG 171035Z AUTO 09007KT 5SM RA BR SCT006 BKN037 OVC070 13/13 A2990 RMK AO2 P0005 TSNO
PAWG 170956Z AUTO 00000KT 5SM RA BR BKN008 BKN041 OVC050 13/13 A2991 RMK AO2 SLP129 P0010 T01330128 TSNO
PAWG 170856Z AUTO 00000KT 10SM -RA BKN047 OVC065 14/12 A2991 RMK AO2 RAB09 SLP128 P0001 60001 T01390122 401670117 56011 TSNO
PAWG 170756Z AUTO VRB04KT 10SM FEW035 OVC060 15/12 A2991 RMK AO2 SLP129 T01500117 TSNO
PAWG 170556Z 07007KT 10SM BKN034 OVC060 14/13 A2994
PAWG 170456Z 00000KT 10SM FEW002 BKN034 OVC060 15/13 A2995 RMK AO2 SLP143 T01500128
PAWG 170356Z 00000KT 10SM FEW002 BKN034 OVC060 14/13 A2997 RMK AO2 SLP148 T01440128
PAWG 170256Z 07007KT 10SM FEW002 BKN034 OVC060 15/13 A2998 RMK AO2 RAE41 SLP152 P0001 60001 T01500133 58011
PAWG 170156Z VRB03KT 10SM -RA BKN034 OVC060 16/13 A3000
PAWG 170056Z 00000KT 10SM -RA BKN034 OVC060 16/13 A3000 RMK AO2 RAB47 SLP160 P0000 T01610128
PAWG 162356Z 00000KT 10SM BKN034 OVC060 16/13 A3001
PAWG 162256Z 00000KT 10SM FEW005 BKN028 OVC060 16/12 A3003
PAWG 162156Z 30006KT 10SM -RA FEW005 BKN033 OVC080 15/12 A3003 RMK AO2 RAE04B37 SLP169 P0000 T01500122
PAWG 162056Z 27004KT 10SM -RA FEW048 BKN060 OVC075 16/12 A3003 RMK AO2 RAB44 SLP171 P0000 60000 T01560122 58003
PAWG 161956Z 00000KT 10SM BKN032 OVC060 16/12 A3004 RMK AO2 SLP174 T01560122
PAWG 161913Z 36004KT 10SM BKN032 OVC040 15/12 A3004 RMK AO2
PAWG 161856Z 00000KT 10SM BKN029 BKN034 OVC100 16/12 A3004
PAWG 161703Z VRB03KT 8SM BKN029 OVC038 13/12 A3004 RMK AO2
PAWG 161656Z 00000KT 10SM BKN029 OVC038 13/12 A3005
PAWG 161556Z 14003KT 10SM OVC040 13/12 A3004 RMK AO2 SLP172 T01330122